sensor_id;sensor_type;location;lat;lon;timestamp;pressure;altitude;pressure_sealevel;temperature;humidity
63554;BME280;49699;48.072;7.800;2022-09-13T00:01:05;99016.00;;;14.61;77.63
63554;BME280;49699;48.072;7.800;2022-09-13T00:03:31;99000.06;;;14.52;77.99
63554;BME280;49699;48.072;7.800;2022-09-13T00:05:57;99000.47;;;14.48;78.21
63554;BME280;49699;48.072;7.800;2022-09-13T00:08:23;99000.94;;;14.42;78.37
63554;BME280;49699;48.072;7.800;2022-09-13T00:10:48;99001.38;;;14.36;78.54
63554;BME280;49699;48.072;7.800;2022-09-13T00:13:14;98993.09;;;14.31;78.56
63554;BME280;49699;48.072;7.800;2022-09-13T00:15:48;98999.28;;;14.30;78.96
63554;BME280;49699;48.072;7.800;2022-09-13T00:18:15;98991.53;;;14.28;79.03
63554;BME280;49699;48.072;7.800;2022-09-13T00:20:41;99005.81;;;14.24;78.98
63554;BME280;49699;48.072;7.800;2022-09-13T00:23:06;99012.13;;;14.21;79.01
63554;BME280;49699;48.072;7.800;2022-09-13T00:25:32;99013.19;;;14.19;79.27
63554;BME280;49699;48.072;7.800;2022-09-13T00:27:58;99008.78;;;14.19;79.16
63554;BME280;49699;48.072;7.800;2022-09-13T00:30:23;99002.84;;;14.17;79.43
63554;BME280;49699;48.072;7.800;2022-09-13T00:32:49;99004.63;;;14.17;79.17
63554;BME280;49699;48.072;7.800;2022-09-13T00:35:14;99009.03;;;14.16;79.39
63554;BME280;49699;48.072;7.800;2022-09-13T00:37:40;99001.44;;;14.13;79.33
63554;BME280;49699;48.072;7.800;2022-09-13T00:40:06;99002.63;;;14.09;79.28
63554;BME280;49699;48.072;7.800;2022-09-13T00:42:31;99002.63;;;14.09;79.44
63554;BME280;49699;48.072;7.800;2022-09-13T00:53:08;99010.47;;;13.98;79.75
63554;BME280;49699;48.072;7.800;2022-09-13T00:58:35;99019.91;;;13.89;79.78
63554;BME280;49699;48.072;7.800;2022-09-13T01:01:07;99019.53;;;13.83;80.16
63554;BME280;49699;48.072;7.800;2022-09-13T01:03:34;99019.66;;;13.81;80.17
63554;BME280;49699;48.072;7.800;2022-09-13T01:06:07;99032.59;;;13.83;80.11
63554;BME280;49699;48.072;7.800;2022-09-13T01:08:35;99029.16;;;13.82;80.39
63554;BME280;49699;48.072;7.800;2022-09-13T01:11:02;99024.16;;;13.79;80.34
63554;BME280;49699;48.072;7.800;2022-09-13T01:13:34;99029.28;;;13.81;80.62
63554;BME280;49699;48.072;7.800;2022-09-13T01:16:00;99025.97;;;13.79;80.57
63554;BME280;49699;48.072;7.800;2022-09-13T01:18:26;99016.47;;;13.78;80.45
63554;BME280;49699;48.072;7.800;2022-09-13T01:23:24;99011.44;;;13.64;80.68
63554;BME280;49699;48.072;7.800;2022-09-13T01:28:52;99014.75;;;13.43;81.22
63554;BME280;49699;48.072;7.800;2022-09-13T01:31:38;99004.41;;;13.42;81.20
63554;BME280;49699;48.072;7.800;2022-09-13T01:37:12;99018.31;;;13.42;81.12
63554;BME280;49699;48.072;7.800;2022-09-13T01:40:02;99017.59;;;13.40;81.08
63554;BME280;49699;48.072;7.800;2022-09-13T01:48:18;99035.41;;;13.35;81.43
63554;BME280;49699;48.072;7.800;2022-09-13T01:56:09;99036.44;;;13.22;81.44
63554;BME280;49699;48.072;7.800;2022-09-13T02:03:36;99044.91;;;13.01;81.98
63554;BME280;49699;48.072;7.800;2022-09-13T02:06:10;99038.00;;;13.00;82.11
63554;BME280;49699;48.072;7.800;2022-09-13T02:08:41;99042.38;;;13.00;82.00
63554;BME280;49699;48.072;7.800;2022-09-13T02:11:12;99037.88;;;13.02;81.91
63554;BME280;49699;48.072;7.800;2022-09-13T02:13:45;99030.06;;;13.02;81.76
63554;BME280;49699;48.072;7.800;2022-09-13T02:16:20;99034.44;;;13.01;81.74
63554;BME280;49699;48.072;7.800;2022-09-13T02:18:53;99034.66;;;12.98;81.75
63554;BME280;49699;48.072;7.800;2022-09-13T02:21:26;99021.00;;;12.95;81.83
63554;BME280;49699;48.072;7.800;2022-09-13T02:23:59;99022.41;;;12.88;82.09
63554;BME280;49699;48.072;7.800;2022-09-13T02:26:27;99015.94;;;12.80;82.41
63554;BME280;49699;48.072;7.800;2022-09-13T02:28:57;99019.72;;;12.76;82.54
63554;BME280;49699;48.072;7.800;2022-09-13T02:31:34;99025.78;;;12.77;82.69
63554;BME280;49699;48.072;7.800;2022-09-13T02:34:09;99024.72;;;12.79;82.72
63554;BME280;49699;48.072;7.800;2022-09-13T02:36:37;99012.28;;;12.83;82.51
63554;BME280;49699;48.072;7.800;2022-09-13T02:39:13;99006.97;;;12.84;82.34
63554;BME280;49699;48.072;7.800;2022-09-13T02:41:47;99006.97;;;12.84;82.36
63554;BME280;49699;48.072;7.800;2022-09-13T02:44:35;99006.97;;;12.84;82.20
63554;BME280;49699;48.072;7.800;2022-09-13T02:50:32;98992.44;;;12.80;82.32
63554;BME280;49699;48.072;7.800;2022-09-13T02:53:03;98996.84;;;12.80;82.45
63554;BME280;49699;48.072;7.800;2022-09-13T02:55:41;98998.50;;;12.81;82.29
63554;BME280;49699;48.072;7.800;2022-09-13T03:00:35;98987.34;;;12.79;82.38
63554;BME280;49699;48.072;7.800;2022-09-13T03:03:03;98987.22;;;12.80;82.39
63554;BME280;49699;48.072;7.800;2022-09-13T03:05:30;98988.91;;;12.81;82.41
63554;BME280;49699;48.072;7.800;2022-09-13T03:07:56;98994.00;;;12.83;82.42
63554;BME280;49699;48.072;7.800;2022-09-13T03:10:25;98989.63;;;12.83;82.32
63554;BME280;49699;48.072;7.800;2022-09-13T03:13:14;98985.94;;;12.86;82.23
63554;BME280;49699;48.072;7.800;2022-09-13T03:16:01;98984.75;;;12.90;82.23
63554;BME280;49699;48.072;7.800;2022-09-13T03:18:42;98984.66;;;12.92;82.13
63554;BME280;49699;48.072;7.800;2022-09-13T03:27:29;98983.66;;;12.81;82.09
63554;BME280;49699;48.072;7.800;2022-09-13T03:30:08;98985.78;;;12.76;82.27
63554;BME280;49699;48.072;7.800;2022-09-13T03:32:49;98981.72;;;12.72;82.42
63554;BME280;49699;48.072;7.800;2022-09-13T03:35:28;98986.47;;;12.67;82.64
63554;BME280;49699;48.072;7.800;2022-09-13T03:40:34;98983.47;;;12.61;82.72
63554;BME280;49699;48.072;7.800;2022-09-13T03:43:12;98981.19;;;12.56;82.70
63554;BME280;49699;48.072;7.800;2022-09-13T03:45:44;98972.53;;;12.56;82.77
63554;BME280;49699;48.072;7.800;2022-09-13T03:48:10;98966.34;;;12.57;82.77
63554;BME280;49699;48.072;7.800;2022-09-13T03:50:38;98974.28;;;12.55;82.82
63554;BME280;49699;48.072;7.800;2022-09-13T03:53:09;98982.13;;;12.55;82.82
63554;BME280;49699;48.072;7.800;2022-09-13T03:55:39;98982.97;;;12.56;82.84
63554;BME280;49699;48.072;7.800;2022-09-13T03:58:14;98975.00;;;12.57;82.77
63554;BME280;49699;48.072;7.800;2022-09-13T04:00:40;98972.41;;;12.57;82.80
63554;BME280;49699;48.072;7.800;2022-09-13T04:03:06;98972.53;;;12.56;82.69
63554;BME280;49699;48.072;7.800;2022-09-13T04:05:32;98970.63;;;12.58;82.58
63554;BME280;49699;48.072;7.800;2022-09-13T04:08:02;98973.03;;;12.61;82.44
63554;BME280;49699;48.072;7.800;2022-09-13T04:10:28;98972.19;;;12.60;82.29
63554;BME280;49699;48.072;7.800;2022-09-13T04:12:56;98977.31;;;12.62;82.24
63554;BME280;49699;48.072;7.800;2022-09-13T04:15:22;98980.63;;;12.64;82.09
63554;BME280;49699;48.072;7.800;2022-09-13T04:17:48;98986.69;;;12.64;82.03
63554;BME280;49699;48.072;7.800;2022-09-13T04:20:14;98981.47;;;12.64;81.91
63554;BME280;49699;48.072;7.800;2022-09-13T04:22:39;98980.63;;;12.64;81.80
63554;BME280;49699;48.072;7.800;2022-09-13T04:25:05;98979.06;;;12.61;81.86
63554;BME280;49699;48.072;7.800;2022-09-13T04:27:31;98988.56;;;12.62;81.98
63554;BME280;49699;48.072;7.800;2022-09-13T04:29:56;98988.06;;;12.57;81.99
63554;BME280;49699;48.072;7.800;2022-09-13T04:32:22;98987.34;;;12.55;82.10
63554;BME280;49699;48.072;7.800;2022-09-13T04:34:47;98989.38;;;12.51;82.26
63554;BME280;49699;48.072;7.800;2022-09-13T04:37:12;98988.66;;;12.49;82.26
63554;BME280;49699;48.072;7.800;2022-09-13T04:39:38;98975.69;;;12.48;82.33
63554;BME280;49699;48.072;7.800;2022-09-13T04:42:04;98981.03;;;12.46;82.36
63554;BME280;49699;48.072;7.800;2022-09-13T04:44:31;98981.13;;;12.45;82.33
63554;BME280;49699;48.072;7.800;2022-09-13T04:46:58;98989.06;;;12.43;82.45
63554;BME280;49699;48.072;7.800;2022-09-13T04:49:24;98988.25;;;12.43;82.40
63554;BME280;49699;48.072;7.800;2022-09-13T04:51:49;98986.47;;;12.43;82.28
63554;BME280;49699;48.072;7.800;2022-09-13T04:54:16;98990.03;;;12.42;82.26
63554;BME280;49699;48.072;7.800;2022-09-13T04:56:44;98990.84;;;12.43;82.23
63554;BME280;49699;48.072;7.800;2022-09-13T04:59:10;98996.19;;;12.41;82.03
63554;BME280;49699;48.072;7.800;2022-09-13T05:01:36;98996.06;;;12.43;82.06
63554;BME280;49699;48.072;7.800;2022-09-13T05:04:03;99004.75;;;12.43;82.15
63554;BME280;49699;48.072;7.800;2022-09-13T05:06:28;99007.25;;;12.45;81.95
63554;BME280;49699;48.072;7.800;2022-09-13T05:08:55;99008.19;;;12.44;82.08
63554;BME280;49699;48.072;7.800;2022-09-13T05:11:22;99006.41;;;12.44;82.17
63554;BME280;49699;48.072;7.800;2022-09-13T05:13:52;99009.00;;;12.44;82.00
63554;BME280;49699;48.072;7.800;2022-09-13T05:16:23;99005.47;;;12.45;82.03
63554;BME280;49699;48.072;7.800;2022-09-13T05:18:49;99008.91;;;12.46;82.22
63554;BME280;49699;48.072;7.800;2022-09-13T05:21:15;99007.13;;;12.46;82.16
63554;BME280;49699;48.072;7.800;2022-09-13T05:23:41;98995.13;;;12.44;82.30
63554;BME280;49699;48.072;7.800;2022-09-13T05:26:07;98987.41;;;12.42;82.08
63554;BME280;49699;48.072;7.800;2022-09-13T05:28:34;98985.97;;;12.38;82.06
63554;BME280;49699;48.072;7.800;2022-09-13T05:31:05;98980.97;;;12.35;82.26
63554;BME280;49699;48.072;7.800;2022-09-13T05:33:33;98962.09;;;12.32;82.34
63554;BME280;49699;48.072;7.800;2022-09-13T05:35:59;98963.16;;;12.29;82.28
63554;BME280;49699;48.072;7.800;2022-09-13T05:38:25;98959.59;;;12.30;82.30
63554;BME280;49699;48.072;7.800;2022-09-13T05:40:55;98956.78;;;12.33;82.35
63554;BME280;49699;48.072;7.800;2022-09-13T05:43:22;98959.97;;;12.37;82.19
63554;BME280;49699;48.072;7.800;2022-09-13T05:45:47;98956.19;;;12.41;82.15
63554;BME280;49699;48.072;7.800;2022-09-13T05:48:13;98954.09;;;12.46;81.90
63554;BME280;49699;48.072;7.800;2022-09-13T05:50:39;98957.78;;;12.55;81.70
63554;BME280;49699;48.072;7.800;2022-09-13T05:53:04;98962.88;;;12.69;81.42
63554;BME280;49699;48.072;7.800;2022-09-13T05:55:30;98961.94;;;12.81;80.97
63554;BME280;49699;48.072;7.800;2022-09-13T05:57:56;98956.28;;;12.87;80.68
63554;BME280;49699;48.072;7.800;2022-09-13T06:00:22;98962.25;;;13.00;80.28
63554;BME280;49699;48.072;7.800;2022-09-13T06:02:47;98958.94;;;13.09;80.02
63554;BME280;49699;48.072;7.800;2022-09-13T06:05:13;98952.44;;;13.15;79.75
63554;BME280;49699;48.072;7.800;2022-09-13T06:07:40;98949.16;;;13.24;79.72
63554;BME280;49699;48.072;7.800;2022-09-13T06:10:07;98957.59;;;13.39;79.38
63554;BME280;49699;48.072;7.800;2022-09-13T06:12:33;98965.91;;;13.55;78.74
63554;BME280;49699;48.072;7.800;2022-09-13T06:14:58;98961.66;;;13.76;78.25
63554;BME280;49699;48.072;7.800;2022-09-13T06:17:24;98960.91;;;13.97;77.45
63554;BME280;49699;48.072;7.800;2022-09-13T06:19:50;98962.69;;;14.07;77.24
63554;BME280;49699;48.072;7.800;2022-09-13T06:22:15;98962.31;;;14.12;76.84
63554;BME280;49699;48.072;7.800;2022-09-13T06:24:41;98962.75;;;14.17;77.03
63554;BME280;49699;48.072;7.800;2022-09-13T06:27:06;98959.31;;;14.28;76.69
63554;BME280;49699;48.072;7.800;2022-09-13T06:29:32;98959.88;;;14.42;76.27
63554;BME280;49699;48.072;7.800;2022-09-13T06:31:57;98967.19;;;14.59;76.00
63554;BME280;49699;48.072;7.800;2022-09-13T06:34:23;98953.56;;;14.77;75.30
63554;BME280;49699;48.072;7.800;2022-09-13T06:36:48;98950.25;;;14.96;74.63
63554;BME280;49699;48.072;7.800;2022-09-13T06:39:13;98952.03;;;15.16;74.21
63554;BME280;49699;48.072;7.800;2022-09-13T06:41:39;98949.53;;;15.35;73.21
63554;BME280;49699;48.072;7.800;2022-09-13T06:44:04;98948.78;;;15.54;73.31
63554;BME280;49699;48.072;7.800;2022-09-13T06:46:33;98944.63;;;15.72;72.33
63554;BME280;49699;48.072;7.800;2022-09-13T06:49:00;98948.00;;;15.93;71.84
63554;BME280;49699;48.072;7.800;2022-09-13T06:51:26;98947.88;;;16.14;71.22
63554;BME280;49699;48.072;7.800;2022-09-13T06:53:53;98944.59;;;16.31;70.45
63554;BME280;49699;48.072;7.800;2022-09-13T06:56:22;98946.28;;;16.52;69.48
63554;BME280;49699;48.072;7.800;2022-09-13T06:58:49;98949.38;;;16.76;69.00
63554;BME280;49699;48.072;7.800;2022-09-13T07:01:19;98942.03;;;16.99;68.28
63554;BME280;49699;48.072;7.800;2022-09-13T07:03:47;98948.91;;;17.19;67.46
63554;BME280;49699;48.072;7.800;2022-09-13T07:06:17;98942.22;;;17.34;66.96
63554;BME280;49699;48.072;7.800;2022-09-13T07:08:44;98942.03;;;17.46;66.64
63554;BME280;49699;48.072;7.800;2022-09-13T07:11:11;98937.56;;;17.56;66.42
63554;BME280;49699;48.072;7.800;2022-09-13T07:13:37;98935.06;;;17.64;66.33
63554;BME280;49699;48.072;7.800;2022-09-13T07:16:08;98939.63;;;17.72;65.97
63554;BME280;49699;48.072;7.800;2022-09-13T07:18:34;98937.28;;;17.68;66.11
63554;BME280;49699;48.072;7.800;2022-09-13T07:21:05;98939.91;;;17.68;66.04
63554;BME280;49699;48.072;7.800;2022-09-13T07:23:32;98938.59;;;17.82;66.04
63554;BME280;49699;48.072;7.800;2022-09-13T07:25:58;98935.41;;;18.06;65.21
63554;BME280;49699;48.072;7.800;2022-09-13T07:28:31;98923.31;;;18.31;64.52
63554;BME280;49699;48.072;7.800;2022-09-13T07:31:27;98928.59;;;18.49;63.99
63554;BME280;49699;48.072;7.800;2022-09-13T07:33:55;98925.97;;;18.66;63.38
63554;BME280;49699;48.072;7.800;2022-09-13T07:36:21;98930.22;;;18.77;62.96
63554;BME280;49699;48.072;7.800;2022-09-13T07:38:47;98925.81;;;18.86;62.89
63554;BME280;49699;48.072;7.800;2022-09-13T07:41:15;98918.81;;;18.94;62.56
63554;BME280;49699;48.072;7.800;2022-09-13T07:43:41;98918.25;;;19.08;62.03
63554;BME280;49699;48.072;7.800;2022-09-13T07:46:09;98915.03;;;19.23;61.50
63554;BME280;49699;48.072;7.800;2022-09-13T07:48:38;98918.41;;;19.33;60.98
63554;BME280;49699;48.072;7.800;2022-09-13T07:51:08;98915.34;;;19.46;60.64
63554;BME280;49699;48.072;7.800;2022-09-13T07:53:35;98914.31;;;19.64;60.20
63554;BME280;49699;48.072;7.800;2022-09-13T07:56:15;98915.34;;;19.80;59.85
63554;BME280;49699;48.072;7.800;2022-09-13T07:58:43;98906.34;;;19.98;59.18
63554;BME280;49699;48.072;7.800;2022-09-13T08:01:12;98907.72;;;20.19;58.64
63554;BME280;49699;48.072;7.800;2022-09-13T08:03:39;98908.13;;;20.40;58.17
63554;BME280;49699;48.072;7.800;2022-09-13T08:06:05;98898.53;;;20.63;57.69
63554;BME280;49699;48.072;7.800;2022-09-13T08:08:31;98904.47;;;20.90;57.08
63554;BME280;49699;48.072;7.800;2022-09-13T08:10:57;98908.09;;;21.13;56.60
63554;BME280;49699;48.072;7.800;2022-09-13T08:13:23;98911.19;;;21.33;56.14
63554;BME280;49699;48.072;7.800;2022-09-13T08:15:49;98903.53;;;21.54;55.50
63554;BME280;49699;48.072;7.800;2022-09-13T08:18:15;98900.03;;;21.62;54.90
63554;BME280;49699;48.072;7.800;2022-09-13T08:20:41;98901.88;;;21.61;54.87
63554;BME280;49699;48.072;7.800;2022-09-13T08:23:09;98894.25;;;21.66;54.92
63554;BME280;49699;48.072;7.800;2022-09-13T08:25:35;98894.69;;;21.78;54.79
63554;BME280;49699;48.072;7.800;2022-09-13T08:28:05;98899.53;;;21.97;54.40
63554;BME280;49699;48.072;7.800;2022-09-13T08:30:32;98891.94;;;22.25;53.87
63554;BME280;49699;48.072;7.800;2022-09-13T08:33:00;98883.00;;;22.49;53.02
63554;BME280;49699;48.072;7.800;2022-09-13T08:35:30;98881.59;;;22.76;52.50
63554;BME280;49699;48.072;7.800;2022-09-13T08:37:56;98887.56;;;23.01;52.07
63554;BME280;49699;48.072;7.800;2022-09-13T08:40:23;98887.38;;;23.17;51.42
63554;BME280;49699;48.072;7.800;2022-09-13T08:45:30;98878.88;;;23.51;50.67
63554;BME280;49699;48.072;7.800;2022-09-13T08:47:58;98878.63;;;23.75;50.10
63554;BME280;49699;48.072;7.800;2022-09-13T08:50:36;98877.03;;;23.96;49.42
63554;BME280;49699;48.072;7.800;2022-09-13T08:53:24;98869.09;;;24.02;49.05
63554;BME280;49699;48.072;7.800;2022-09-13T08:56:09;98875.25;;;24.03;48.64
63554;BME280;49699;48.072;7.800;2022-09-13T09:01:43;98877.41;;;24.29;47.97
63554;BME280;49699;48.072;7.800;2022-09-13T09:07:08;98887.22;;;24.49;47.51
63554;BME280;49699;48.072;7.800;2022-09-13T09:09:40;98899.44;;;24.65;47.27
63554;BME280;49699;48.072;7.800;2022-09-13T09:12:24;98901.28;;;24.65;47.20
63554;BME280;49699;48.072;7.800;2022-09-13T09:14:58;98918.06;;;24.65;47.35
63554;BME280;49699;48.072;7.800;2022-09-13T09:17:33;98916.69;;;24.69;47.26
63554;BME280;49699;48.072;7.800;2022-09-13T09:20:15;98920.00;;;24.78;47.03
63554;BME280;49699;48.072;7.800;2022-09-13T09:22:45;98932.94;;;24.81;47.02
63554;BME280;49699;48.072;7.800;2022-09-13T09:25:12;98930.09;;;24.82;46.79
63554;BME280;49699;48.072;7.800;2022-09-13T09:27:38;98936.69;;;24.86;47.06
63554;BME280;49699;48.072;7.800;2022-09-13T09:30:05;98937.00;;;24.98;46.39
63554;BME280;49699;48.072;7.800;2022-09-13T09:32:55;98922.59;;;25.14;45.38
63554;BME280;49699;48.072;7.800;2022-09-13T09:35:40;98917.50;;;25.19;45.13
63554;BME280;49699;48.072;7.800;2022-09-13T09:38:41;98908.63;;;25.40;44.78
63554;BME280;49699;48.072;7.800;2022-09-13T09:46:28;98899.50;;;25.97;43.97
63554;BME280;49699;48.072;7.800;2022-09-13T09:49:25;98903.47;;;26.20;43.67
63554;BME280;49699;48.072;7.800;2022-09-13T09:52:06;98906.22;;;26.40;43.17
63554;BME280;49699;48.072;7.800;2022-09-13T09:54:35;98894.72;;;26.53;42.71
63554;BME280;49699;48.072;7.800;2022-09-13T09:57:02;98890.88;;;26.69;42.48
63554;BME280;49699;48.072;7.800;2022-09-13T09:59:30;98888.00;;;26.83;42.09
63554;BME280;49699;48.072;7.800;2022-09-13T10:01:57;98873.78;;;26.89;42.28
63554;BME280;49699;48.072;7.800;2022-09-13T10:04:24;98865.19;;;26.94;42.13
63554;BME280;49699;48.072;7.800;2022-09-13T10:07:07;98864.19;;;27.02;42.09
63554;BME280;49699;48.072;7.800;2022-09-13T10:09:35;98861.28;;;27.16;41.77
63554;BME280;49699;48.072;7.800;2022-09-13T10:12:02;98852.19;;;27.30;41.04
63554;BME280;49699;48.072;7.800;2022-09-13T10:17:17;98842.09;;;27.39;41.04
63554;BME280;49699;48.072;7.800;2022-09-13T10:19:54;98839.59;;;27.44;41.00
63554;BME280;49699;48.072;7.800;2022-09-13T10:22:21;98839.41;;;27.46;41.41
63554;BME280;49699;48.072;7.800;2022-09-13T10:24:47;98834.84;;;27.53;41.56
63554;BME280;49699;48.072;7.800;2022-09-13T10:27:34;98843.69;;;27.60;41.42
63554;BME280;49699;48.072;7.800;2022-09-13T10:30:02;98843.88;;;27.65;41.13
63554;BME280;49699;48.072;7.800;2022-09-13T10:32:31;98837.09;;;27.62;41.22
63554;BME280;49699;48.072;7.800;2022-09-13T10:35:15;98828.69;;;27.59;41.38
63554;BME280;49699;48.072;7.800;2022-09-13T10:37:43;98832.78;;;27.61;41.62
63554;BME280;49699;48.072;7.800;2022-09-13T10:40:25;98824.97;;;27.60;41.73
63554;BME280;49699;48.072;7.800;2022-09-13T10:42:56;98822.31;;;27.53;42.01
63554;BME280;49699;48.072;7.800;2022-09-13T10:45:27;98824.38;;;27.58;42.03
63554;BME280;49699;48.072;7.800;2022-09-13T10:48:05;98815.31;;;27.59;41.92
63554;BME280;49699;48.072;7.800;2022-09-13T10:50:36;98802.34;;;27.62;42.17
63554;BME280;49699;48.072;7.800;2022-09-13T10:53:02;98798.00;;;27.68;42.10
63554;BME280;49699;48.072;7.800;2022-09-13T10:55:37;98797.41;;;27.66;42.01
63554;BME280;49699;48.072;7.800;2022-09-13T11:03:45;98782.38;;;27.65;41.95
63554;BME280;49699;48.072;7.800;2022-09-13T11:17:02;98763.88;;;27.70;41.38
63554;BME280;49699;48.072;7.800;2022-09-13T11:19:49;98757.44;;;27.78;41.13
63554;BME280;49699;48.072;7.800;2022-09-13T11:25:25;98751.34;;;27.95;41.14
63554;BME280;49699;48.072;7.800;2022-09-13T11:37:03;98752.31;;;28.08;40.79
63554;BME280;49699;48.072;7.800;2022-09-13T11:39:37;98743.88;;;28.04;40.79
63554;BME280;49699;48.072;7.800;2022-09-13T11:42:47;98750.91;;;27.98;41.02
63554;BME280;49699;48.072;7.800;2022-09-13T11:45:25;98748.91;;;27.94;41.22
63554;BME280;49699;48.072;7.800;2022-09-13T11:56:00;98748.81;;;27.76;39.86
63554;BME280;49699;48.072;7.800;2022-09-13T11:59:14;98745.97;;;27.71;40.03
63554;BME280;49699;48.072;7.800;2022-09-13T12:01:35;98749.69;;;27.70;40.61
63554;BME280;49699;48.072;7.800;2022-09-13T12:04:04;98743.50;;;27.69;40.78
63554;BME280;49699;48.072;7.800;2022-09-13T12:06:39;98751.09;;;27.72;40.59
63554;BME280;49699;48.072;7.800;2022-09-13T12:09:16;98758.09;;;27.73;41.05
63554;BME280;49699;48.072;7.800;2022-09-13T12:11:54;98747.63;;;27.72;41.28
63554;BME280;49699;48.072;7.800;2022-09-13T12:14:25;98751.72;;;27.74;41.34
63554;BME280;49699;48.072;7.800;2022-09-13T12:16:57;98751.50;;;27.76;41.64
63554;BME280;49699;48.072;7.800;2022-09-13T12:19:40;98746.16;;;27.76;41.99
63554;BME280;49699;48.072;7.800;2022-09-13T12:22:07;98741.22;;;27.73;41.92
63554;BME280;49699;48.072;7.800;2022-09-13T12:27:21;98752.34;;;27.70;42.64
63554;BME280;49699;48.072;7.800;2022-09-13T12:29:51;98759.38;;;27.64;42.52
63554;BME280;49699;48.072;7.800;2022-09-13T12:32:18;98754.25;;;27.56;42.95
63554;BME280;49699;48.072;7.800;2022-09-13T12:35:01;98757.78;;;27.50;43.27
63554;BME280;49699;48.072;7.800;2022-09-13T12:49:19;98755.19;;;27.23;43.63
63554;BME280;49699;48.072;7.800;2022-09-13T12:52:09;98762.19;;;27.24;43.59
63554;BME280;49699;48.072;7.800;2022-09-13T13:00:29;98767.16;;;27.14;44.22
63554;BME280;49699;48.072;7.800;2022-09-13T13:03:12;98763.47;;;27.15;44.22
63554;BME280;49699;48.072;7.800;2022-09-13T13:06:05;98770.66;;;27.15;44.43
63554;BME280;49699;48.072;7.800;2022-09-13T13:08:32;98761.84;;;27.08;44.36
63554;BME280;49699;48.072;7.800;2022-09-13T13:11:10;98764.13;;;27.04;44.38
63554;BME280;49699;48.072;7.800;2022-09-13T13:13:56;98768.84;;;27.02;44.54
63554;BME280;49699;48.072;7.800;2022-09-13T13:16:33;98763.09;;;26.99;44.37
63554;BME280;49699;48.072;7.800;2022-09-13T13:19:02;98759.63;;;26.98;44.36
63554;BME280;49699;48.072;7.800;2022-09-13T13:21:34;98759.81;;;26.96;44.60
63554;BME280;49699;48.072;7.800;2022-09-13T13:29:25;98733.72;;;26.99;44.45
63554;BME280;49699;48.072;7.800;2022-09-13T13:34:29;98726.94;;;27.03;44.61
63554;BME280;49699;48.072;7.800;2022-09-13T13:36:57;98731.44;;;27.09;44.35
63554;BME280;49699;48.072;7.800;2022-09-13T13:41:57;98729.72;;;27.27;44.38
63554;BME280;49699;48.072;7.800;2022-09-13T13:59:57;98691.66;;;28.02;40.92
63554;BME280;49699;48.072;7.800;2022-09-13T14:05:22;98678.63;;;28.12;40.61
63554;BME280;49699;48.072;7.800;2022-09-13T14:11:18;98666.94;;;28.06;40.80
63554;BME280;49699;48.072;7.800;2022-09-13T14:14:07;98664.28;;;27.99;40.99
63554;BME280;49699;48.072;7.800;2022-09-13T14:16:58;98660.06;;;27.92;41.38
63554;BME280;49699;48.072;7.800;2022-09-13T14:19:29;98657.44;;;27.85;41.77
63554;BME280;49699;48.072;7.800;2022-09-13T14:22:12;98652.13;;;27.79;41.73
63554;BME280;49699;48.072;7.800;2022-09-13T14:24:46;98651.75;;;27.75;42.33
63554;BME280;49699;48.072;7.800;2022-09-13T14:27:35;98645.19;;;27.71;42.72
63554;BME280;49699;48.072;7.800;2022-09-13T14:30:23;98642.34;;;27.66;43.02
63554;BME280;49699;48.072;7.800;2022-09-13T14:32:56;98636.63;;;27.62;43.18
63554;BME280;49699;48.072;7.800;2022-09-13T14:37:52;98634.78;;;27.56;43.66
63554;BME280;49699;48.072;7.800;2022-09-13T14:42:46;98626.81;;;27.50;44.40
63554;BME280;49699;48.072;7.800;2022-09-13T14:45:13;98627.44;;;27.45;44.80
63554;BME280;49699;48.072;7.800;2022-09-13T14:50:24;98623.34;;;27.43;45.17
63554;BME280;49699;48.072;7.800;2022-09-13T14:52:55;98631.78;;;27.46;45.32
63554;BME280;49699;48.072;7.800;2022-09-13T14:55:35;98624.34;;;27.48;45.22
63554;BME280;49699;48.072;7.800;2022-09-13T14:58:06;98618.78;;;27.50;45.26
63554;BME280;49699;48.072;7.800;2022-09-13T15:00:57;98616.34;;;27.48;45.16
63554;BME280;49699;48.072;7.800;2022-09-13T15:03:25;98610.81;;;27.43;45.51
63554;BME280;49699;48.072;7.800;2022-09-13T15:05:56;98609.84;;;27.38;45.42
63554;BME280;49699;48.072;7.800;2022-09-13T15:10:59;98594.06;;;27.29;46.11
63554;BME280;49699;48.072;7.800;2022-09-13T15:13:25;98590.19;;;27.25;46.34
63554;BME280;49699;48.072;7.800;2022-09-13T15:15:51;98593.53;;;27.21;45.89
63554;BME280;49699;48.072;7.800;2022-09-13T15:21:04;98579.59;;;27.12;46.37
63554;BME280;49699;48.072;7.800;2022-09-13T15:23:35;98587.41;;;27.07;46.25
63554;BME280;49699;48.072;7.800;2022-09-13T15:26:11;98587.06;;;27.04;46.41
63554;BME280;49699;48.072;7.800;2022-09-13T15:31:10;98591.78;;;26.88;47.33
63554;BME280;49699;48.072;7.800;2022-09-13T15:33:43;98590.81;;;26.83;47.95
63554;BME280;49699;48.072;7.800;2022-09-13T15:41:35;98573.00;;;26.70;49.03
63554;BME280;49699;48.072;7.800;2022-09-13T15:44:03;98577.50;;;26.70;48.98
63554;BME280;49699;48.072;7.800;2022-09-13T15:46:29;98570.72;;;26.74;48.94
63554;BME280;49699;48.072;7.800;2022-09-13T15:48:58;98565.56;;;26.79;48.69
63554;BME280;49699;48.072;7.800;2022-09-13T15:51:24;98567.75;;;26.88;48.65
63554;BME280;49699;48.072;7.800;2022-09-13T15:53:50;98564.69;;;26.98;48.78
63554;BME280;49699;48.072;7.800;2022-09-13T15:56:21;98568.13;;;27.05;48.54
63554;BME280;49699;48.072;7.800;2022-09-13T15:58:48;98559.69;;;27.08;48.14
63554;BME280;49699;48.072;7.800;2022-09-13T16:01:14;98553.09;;;27.11;48.33
63554;BME280;49699;48.072;7.800;2022-09-13T16:03:41;98549.19;;;27.07;48.39
63554;BME280;49699;48.072;7.800;2022-09-13T16:06:07;98547.63;;;26.99;48.76
63554;BME280;49699;48.072;7.800;2022-09-13T16:08:36;98541.53;;;26.85;49.38
63554;BME280;49699;48.072;7.800;2022-09-13T16:11:02;98546.31;;;26.70;49.65
63554;BME280;49699;48.072;7.800;2022-09-13T16:13:29;98542.28;;;26.54;50.26
63554;BME280;49699;48.072;7.800;2022-09-13T16:15:54;98533.91;;;26.44;50.72